Time;durP1;ratioP1;P1;durP2;ratioP2;P2;SDS_P1;SDS_P2;PMS_P1;PMS_P2;Temp;Humidity;BMP_temperature;BMP_pressure;BME280_temperature;BME280_humidity;BME280_pressure;Samples;Min_cycle;Max_cycle;Signal;HPM_P1;HPM_P2
2022/07/14 00:01:25;;;;;;;3.55;2.15;;;20.70;96.20;;;;;;4969186;28;20101;-60
2022/07/14 00:03:51;;;;;;;4.68;2.95;;;20.60;96.30;;;;;;4973788;28;20026;-58
2022/07/14 00:06:16;;;;;;;5.65;2.20;;;20.60;96.40;;;;;;4969672;28;20536;-61
2022/07/14 00:08:46;;;;;;;2.38;2.08;;;20.60;96.50;;;;;;4973438;28;20030;-56
2022/07/14 00:11:12;;;;;;;8.23;2.17;;;20.60;96.60;;;;;;4973313;28;20481;-58
2022/07/14 00:13:38;;;;;;;5.60;2.40;;;20.60;97.00;;;;;;4971410;28;20027;-58
2022/07/14 00:16:04;;;;;;;6.50;2.70;;;20.50;97.00;;;;;;4974560;28;20030;-57
2022/07/14 00:18:30;;;;;;;8.32;2.65;;;20.50;97.40;;;;;;4972597;28;20026;-58
2022/07/14 00:20:56;;;;;;;4.28;2.60;;;20.40;97.90;;;;;;4974686;28;20031;-58
2022/07/14 00:23:24;;;;;;;5.78;2.70;;;20.40;98.10;;;;;;4971691;28;20386;-58
2022/07/14 00:25:50;;;;;;;4.80;2.72;;;20.40;98.20;;;;;;4973135;28;20045;-60
2022/07/14 00:28:16;;;;;;;3.25;2.60;;;20.30;98.60;;;;;;4971086;28;20049;-58
2022/07/14 00:30:41;;;;;;;5.53;2.53;;;20.40;98.60;;;;;;4974136;28;20477;-60
2022/07/14 00:33:07;;;;;;;4.80;2.80;;;20.40;98.80;;;;;;4973297;28;20736;-59
2022/07/14 00:35:33;;;;;;;4.53;2.80;;;20.40;99.00;;;;;;4973895;28;20039;-60
2022/07/14 00:37:59;;;;;;;8.32;2.92;;;20.30;99.40;;;;;;4973285;28;20035;-60
2022/07/14 00:40:25;;;;;;;6.97;3.20;;;20.30;99.60;;;;;;4966864;28;20031;-58
2022/07/14 00:42:51;;;;;;;7.35;3.00;;;20.30;99.70;;;;;;4969866;28;20475;-60
2022/07/14 00:45:20;;;;;;;5.05;2.72;;;20.20;99.90;;;;;;4973062;28;20046;-60
2022/07/14 00:47:48;;;;;;;14.45;3.30;;;20.20;99.90;;;;;;4970785;28;20045;-61
2022/07/14 00:50:16;;;;;;;5.60;2.80;;;20.20;99.90;;;;;;4973420;28;20038;-61
2022/07/14 00:52:43;;;;;;;6.82;2.60;;;20.10;99.90;;;;;;4973245;28;20105;-60
2022/07/14 00:55:10;;;;;;;4.35;2.90;;;20.10;99.90;;;;;;4974308;28;20198;-59
2022/07/14 00:57:37;;;;;;;7.70;2.78;;;20.00;99.90;;;;;;4974518;28;20058;-60
2022/07/14 01:00:05;;;;;;;8.73;3.65;;;20.00;99.90;;;;;;4973332;28;20146;-58
2022/07/14 01:02:31;;;;;;;3.92;3.03;;;19.90;99.90;;;;;;4971799;28;20082;-60
2022/07/14 01:04:56;;;;;;;9.27;3.00;;;20.00;99.90;;;;;;4971426;28;20489;-62
2022/07/14 01:07:22;;;;;;;8.98;3.33;;;20.00;99.90;;;;;;4973247;28;20053;-58
2022/07/14 01:09:48;;;;;;;7.43;3.97;;;19.90;99.90;;;;;;4973302;28;20022;-59
2022/07/14 01:12:14;;;;;;;7.22;3.50;;;19.90;99.90;;;;;;4973893;28;20026;-59
2022/07/14 01:14:41;;;;;;;11.45;2.90;;;19.80;99.90;;;;;;4972369;28;20023;-54
2022/07/14 01:17:08;;;;;;;5.78;3.03;;;19.80;99.90;;;;;;4971859;28;20077;-59
2022/07/14 01:19:34;;;;;;;8.55;3.72;;;19.80;99.90;;;;;;4972842;28;20027;-59
2022/07/14 01:22:00;;;;;;;9.30;3.60;;;19.80;99.90;;;;;;4974474;28;20030;-59
2022/07/14 01:24:27;;;;;;;6.88;3.38;;;19.80;99.90;;;;;;4960043;28;20062;-59
2022/07/14 01:26:53;;;;;;;10.20;2.97;;;19.70;99.90;;;;;;4973665;28;20494;-59
2022/07/14 01:29:19;;;;;;;8.50;3.28;;;19.60;99.90;;;;;;4972576;28;20448;-57
2022/07/14 01:31:45;;;;;;;6.53;3.40;;;19.60;99.90;;;;;;4974012;28;20037;-59
2022/07/14 01:34:10;;;;;;;9.30;3.28;;;19.60;99.90;;;;;;4979642;28;20481;-58
2022/07/14 01:36:36;;;;;;;5.68;3.28;;;19.70;99.90;;;;;;4973421;28;20519;-60
2022/07/14 01:39:03;;;;;;;7.47;3.40;;;19.60;99.90;;;;;;4972095;28;20039;-60
2022/07/14 01:41:29;;;;;;;7.47;3.28;;;19.60;99.90;;;;;;4972648;28;20030;-61
2022/07/14 01:43:55;;;;;;;7.35;3.22;;;19.60;99.90;;;;;;4972802;28;20433;-60
2022/07/14 01:46:21;;;;;;;8.70;3.55;;;19.50;99.90;;;;;;4973155;28;20027;-56
2022/07/14 01:48:47;;;;;;;5.85;3.58;;;19.50;99.90;;;;;;4971403;28;20034;-60
2022/07/14 01:51:12;;;;;;;9.30;3.53;;;19.50;99.90;;;;;;4973192;28;20022;-58
2022/07/14 01:53:38;;;;;;;9.23;4.32;;;19.50;99.90;;;;;;4973208;28;20035;-58
2022/07/14 01:56:04;;;;;;;6.18;3.58;;;19.50;99.90;;;;;;4971991;28;20041;-58
2022/07/14 01:58:29;;;;;;;7.00;3.92;;;19.50;99.90;;;;;;4970927;28;20217;-59
2022/07/14 02:03:39;;;;;;;7.88;3.42;;;19.30;99.90;;;;;;4965550;28;20030;-61
2022/07/14 02:06:05;;;;;;;11.00;3.45;;;19.30;99.90;;;;;;4972803;28;20027;-60
2022/07/14 02:08:30;;;;;;;14.18;4.28;;;19.30;99.90;;;;;;4969809;28;20149;-59
2022/07/14 02:13:40;;;;;;;10.23;3.85;;;19.20;99.90;;;;;;4966140;28;20060;-59
2022/07/14 02:16:08;;;;;;;6.93;3.58;;;19.20;99.90;;;;;;4971476;28;20055;-59
2022/07/14 02:18:33;;;;;;;7.72;3.58;;;19.20;99.90;;;;;;4971061;28;20077;-59
2022/07/14 02:20:59;;;;;;;8.50;3.45;;;19.20;99.90;;;;;;4973132;28;20050;-58
2022/07/14 02:23:25;;;;;;;9.00;4.35;;;19.10;99.90;;;;;;4980951;28;20034;-61
2022/07/14 02:25:50;;;;;;;13.90;4.50;;;19.10;99.90;;;;;;4954476;28;20065;-58
2022/07/14 02:28:17;;;;;;;12.73;4.93;;;19.10;99.90;;;;;;4971152;28;20437;-59
2022/07/14 02:30:42;;;;;;;6.72;3.35;;;19.10;99.90;;;;;;4971851;28;20113;-55
2022/07/14 02:33:09;;;;;;;15.00;3.55;;;19.10;99.90;;;;;;4980876;28;20133;-58
2022/07/14 02:35:35;;;;;;;10.07;4.97;;;19.00;99.90;;;;;;4972605;28;20106;-59
2022/07/14 02:38:00;;;;;;;8.57;3.75;;;19.00;99.90;;;;;;4971507;28;20605;-59
2022/07/14 02:40:26;;;;;;;9.18;3.33;;;19.00;99.90;;;;;;4968145;28;20106;-60
2022/07/14 02:42:52;;;;;;;9.98;3.50;;;19.00;99.90;;;;;;4971931;28;20527;-58
2022/07/14 02:45:18;;;;;;;9.20;3.30;;;19.00;99.90;;;;;;4971357;28;20081;-59
2022/07/14 02:47:44;;;;;;;12.73;3.97;;;19.00;99.90;;;;;;4969721;28;20031;-60
2022/07/14 02:50:10;;;;;;;6.30;3.78;;;18.90;99.90;;;;;;4967481;28;20034;-58
2022/07/14 02:52:36;;;;;;;7.45;3.40;;;18.90;99.90;;;;;;4971061;28;20039;-59
2022/07/14 02:55:02;;;;;;;7.47;3.53;;;18.90;99.90;;;;;;4969020;28;20520;-62
2022/07/14 02:57:28;;;;;;;10.43;4.28;;;18.90;99.90;;;;;;4967830;28;20529;-59
2022/07/14 02:59:54;;;;;;;7.43;4.10;;;18.90;99.90;;;;;;4972564;28;20026;-60
2022/07/14 03:02:20;;;;;;;14.48;4.45;;;18.80;99.90;;;;;;4970605;28;20110;-59
2022/07/14 03:04:45;;;;;;;6.72;3.45;;;18.80;99.90;;;;;;4970833;28;20076;-59
2022/07/14 03:07:11;;;;;;;8.10;3.65;;;18.80;99.90;;;;;;4969682;28;20030;-57
2022/07/14 03:09:37;;;;;;;8.65;3.70;;;18.70;99.90;;;;;;4971727;28;20022;-60
2022/07/14 03:12:03;;;;;;;6.20;3.40;;;18.70;99.90;;;;;;4971875;28;20543;-60
2022/07/14 03:14:28;;;;;;;11.43;4.13;;;18.60;99.90;;;;;;4972146;28;20584;-60
2022/07/14 03:16:54;;;;;;;11.68;4.22;;;18.60;99.90;;;;;;4969294;28;20393;-60
2022/07/14 03:19:19;;;;;;;8.63;4.35;;;18.50;99.90;;;;;;4971176;28;20067;-60
2022/07/14 03:21:45;;;;;;;8.80;4.95;;;18.50;99.90;;;;;;4971517;28;20023;-60
2022/07/14 03:24:11;;;;;;;8.23;3.95;;;18.50;99.90;;;;;;4970599;28;20042;-55
2022/07/14 03:26:38;;;;;;;15.95;4.10;;;18.50;99.90;;;;;;4953762;28;20042;-58
2022/07/14 03:29:04;;;;;;;10.27;4.13;;;18.40;99.90;;;;;;4970006;28;20066;-61
2022/07/14 03:31:29;;;;;;;8.02;3.75;;;18.50;99.90;;;;;;4971731;28;20050;-59
2022/07/14 03:33:55;;;;;;;12.68;3.50;;;18.50;99.90;;;;;;4970855;28;20396;-60
2022/07/14 03:36:21;;;;;;;11.90;3.90;;;18.50;99.90;;;;;;4970258;28;20030;-60
2022/07/14 03:38:47;;;;;;;9.30;3.92;;;18.50;99.90;;;;;;4969906;28;20027;-57
2022/07/14 03:41:13;;;;;;;7.80;4.05;;;18.50;99.90;;;;;;4971759;28;20026;-59
2022/07/14 03:43:39;;;;;;;9.57;3.70;;;18.50;99.90;;;;;;4970748;28;20078;-62
2022/07/14 03:46:06;;;;;;;9.70;4.38;;;18.50;99.90;;;;;;4972140;28;20035;-59
2022/07/14 03:48:35;;;;;;;6.15;3.58;;;18.40;99.90;;;;;;4969299;28;20026;-59
2022/07/14 03:51:01;;;;;;;10.10;3.92;;;18.40;99.90;;;;;;4971907;28;20102;-59
2022/07/14 03:53:29;;;;;;;7.43;3.70;;;18.40;99.90;;;;;;4970557;28;20114;-59
2022/07/14 03:55:55;;;;;;;8.27;4.22;;;18.40;99.90;;;;;;4970199;28;20030;-59
2022/07/14 03:58:20;;;;;;;10.85;3.55;;;18.40;99.90;;;;;;4973444;28;20023;-58
2022/07/14 04:00:46;;;;;;;10.25;4.68;;;18.40;99.90;;;;;;4966683;28;20650;-57
2022/07/14 04:03:12;;;;;;;9.73;3.75;;;18.40;99.90;;;;;;4971010;28;20023;-58
2022/07/14 04:05:37;;;;;;;9.43;4.18;;;18.40;99.90;;;;;;4969187;28;20035;-59
2022/07/14 04:08:03;;;;;;;8.70;4.07;;;18.40;99.90;;;;;;4971901;28;20034;-60
2022/07/14 04:10:29;;;;;;;9.07;4.72;;;18.40;99.90;;;;;;4970183;28;20500;-58
2022/07/14 04:12:56;;;;;;;7.97;3.75;;;18.40;99.90;;;;;;4990889;23;20050;-60
2022/07/14 04:15:23;;;;;;;7.30;3.47;;;18.40;99.90;;;;;;4965061;28;20039;-60
2022/07/14 04:17:49;;;;;;;11.30;5.00;;;18.30;99.90;;;;;;4973184;28;20023;-61
2022/07/14 04:20:14;;;;;;;13.07;4.95;;;18.30;99.90;;;;;;4961659;28;20047;-57
2022/07/14 04:22:40;;;;;;;13.95;4.55;;;18.40;99.90;;;;;;4973494;28;20041;-59
2022/07/14 04:25:09;;;;;;;10.25;4.38;;;18.30;99.90;;;;;;4934345;28;20195;-59
2022/07/14 04:27:34;;;;;;;10.70;4.07;;;18.30;99.90;;;;;;4954560;28;20023;-60
2022/07/14 04:30:00;;;;;;;9.85;5.18;;;18.40;99.90;;;;;;4951185;28;20050;-59
2022/07/14 04:32:26;;;;;;;11.10;4.38;;;18.40;99.90;;;;;;4952050;28;20187;-59
2022/07/14 04:34:52;;;;;;;8.27;4.35;;;18.50;99.90;;;;;;4948917;28;20027;-59
2022/07/14 04:37:18;;;;;;;9.63;4.70;;;18.40;99.90;;;;;;4959790;28;20481;-59
2022/07/14 04:39:43;;;;;;;13.15;4.30;;;18.50;99.90;;;;;;4953526;28;20068;-59
2022/07/14 04:42:09;;;;;;;10.13;4.65;;;18.50;99.90;;;;;;4951071;28;20054;-59
2022/07/14 04:44:34;;;;;;;9.55;3.58;;;18.40;99.90;;;;;;4950050;28;20086;-56
2022/07/14 04:47:00;;;;;;;10.07;4.20;;;18.40;99.90;;;;;;4951309;29;20035;-59
2022/07/14 04:52:10;;;;;;;13.60;4.60;;;18.40;99.90;;;;;;4948746;28;20523;-59
2022/07/14 04:54:36;;;;;;;12.57;4.05;;;18.40;99.90;;;;;;4949086;28;20106;-57
2022/07/14 04:57:03;;;;;;;7.78;4.00;;;18.50;99.90;;;;;;4950042;28;20118;-59
2022/07/14 04:59:30;;;;;;;11.00;4.13;;;18.40;99.90;;;;;;4951835;28;20034;-59
2022/07/14 05:01:56;;;;;;;10.13;4.20;;;18.50;99.90;;;;;;4954678;28;20028;-58
2022/07/14 05:04:22;;;;;;;15.77;4.28;;;18.50;99.90;;;;;;4953601;28;20516;-59
2022/07/14 05:06:49;;;;;;;8.23;3.92;;;18.50;99.90;;;;;;4955916;28;20926;-59
2022/07/14 05:09:17;;;;;;;10.85;3.97;;;18.50;99.90;;;;;;4970234;28;20054;-60
2022/07/14 05:11:43;;;;;;;15.10;4.90;;;18.50;99.90;;;;;;4954722;29;20023;-60
2022/07/14 05:14:09;;;;;;;10.40;4.25;;;18.40;99.90;;;;;;4952789;28;20039;-59
2022/07/14 05:16:34;;;;;;;9.65;4.47;;;18.40;99.90;;;;;;4951660;28;20465;-59
2022/07/14 05:19:00;;;;;;;14.50;5.43;;;18.40;99.90;;;;;;4953172;28;20042;-59
2022/07/14 05:21:26;;;;;;;12.13;4.13;;;18.40;99.90;;;;;;4953655;28;20588;-59
2022/07/14 05:23:52;;;;;;;11.15;4.72;;;18.50;99.90;;;;;;4953514;28;20039;-59
2022/07/14 05:26:18;;;;;;;11.43;4.90;;;18.50;99.90;;;;;;4954934;28;20118;-59
2022/07/14 05:28:44;;;;;;;8.93;3.88;;;18.60;99.90;;;;;;4954116;28;20034;-58
2022/07/14 05:31:10;;;;;;;10.68;4.90;;;18.50;99.90;;;;;;4953499;28;20031;-59
2022/07/14 05:33:36;;;;;;;12.18;4.57;;;18.50;99.90;;;;;;4950082;28;20019;-59
2022/07/14 05:36:03;;;;;;;13.32;4.22;;;18.60;99.90;;;;;;4950557;29;20031;-59
2022/07/14 05:38:31;;;;;;;11.35;4.82;;;18.60;99.90;;;;;;4954862;28;20039;-59
2022/07/14 05:40:57;;;;;;;11.05;5.13;;;18.60;99.90;;;;;;4948448;28;20038;-59
2022/07/14 05:43:23;;;;;;;14.82;4.55;;;18.70;99.90;;;;;;4959415;28;20028;-59
2022/07/14 05:45:48;;;;;;;11.02;4.45;;;18.70;99.90;;;;;;4959106;28;20023;-60
2022/07/14 05:48:14;;;;;;;8.52;3.90;;;18.80;99.90;;;;;;4960136;28;20031;-60
2022/07/14 05:50:40;;;;;;;10.73;4.50;;;18.90;99.90;;;;;;4952345;28;20027;-59
2022/07/14 05:53:05;;;;;;;14.10;4.68;;;18.90;99.90;;;;;;4952086;29;20066;-60
2022/07/14 05:55:31;;;;;;;9.98;4.80;;;18.90;99.90;;;;;;4952244;29;20126;-60
2022/07/14 05:57:56;;;;;;;6.57;4.30;;;19.00;99.90;;;;;;4938328;28;20505;-60
2022/07/14 06:00:22;;;;;;;12.40;4.55;;;19.00;99.90;;;;;;4969085;28;20031;-58
2022/07/14 06:02:48;;;;;;;10.10;4.15;;;19.10;99.90;;;;;;4972769;28;20034;-59
2022/07/14 06:05:13;;;;;;;11.82;4.43;;;19.00;99.90;;;;;;4971412;28;20033;-60
2022/07/14 06:07:39;;;;;;;13.13;4.68;;;19.00;99.90;;;;;;4971527;28;20034;-59
2022/07/14 06:10:06;;;;;;;13.52;5.15;;;19.00;99.90;;;;;;4970143;28;20035;-59
2022/07/14 06:12:37;;;;;;;11.88;4.80;;;19.00;99.90;;;;;;4972057;28;20042;-60
2022/07/14 06:15:05;;;;;;;21.17;4.97;;;19.10;99.90;;;;;;4971539;28;20113;-57
2022/07/14 06:17:31;;;;;;;11.43;4.20;;;19.10;99.90;;;;;;4971863;28;20518;-58
2022/07/14 06:20:00;;;;;;;13.75;4.57;;;19.00;99.90;;;;;;4971620;28;20118;-59
2022/07/14 06:22:26;;;;;;;14.35;4.15;;;19.00;99.90;;;;;;4971886;28;20035;-59
2022/07/14 06:24:52;;;;;;;11.88;5.22;;;19.00;99.90;;;;;;4971315;28;20530;-59
2022/07/14 06:27:18;;;;;;;12.25;5.35;;;19.00;99.90;;;;;;4972907;28;20026;-59
2022/07/14 06:29:43;;;;;;;12.65;6.00;;;19.20;99.90;;;;;;4970944;28;20039;-59
2022/07/14 06:32:09;;;;;;;17.75;5.32;;;19.30;99.90;;;;;;4972144;28;20050;-60
2022/07/14 06:34:35;;;;;;;13.38;5.38;;;19.40;99.90;;;;;;4968047;28;20110;-59
2022/07/14 06:37:00;;;;;;;13.75;5.15;;;19.50;99.90;;;;;;4964656;28;20893;-59
2022/07/14 06:39:26;;;;;;;15.20;5.38;;;19.70;99.90;;;;;;4967632;28;20095;-59
2022/07/14 06:41:51;;;;;;;21.67;6.20;;;19.70;99.90;;;;;;4969431;28;20455;-59
2022/07/14 06:44:17;;;;;;;14.35;5.47;;;19.70;99.90;;;;;;4968169;28;20038;-60
2022/07/14 06:46:43;;;;;;;10.18;4.97;;;19.60;99.90;;;;;;4974978;28;20058;-60
2022/07/14 06:49:08;;;;;;;12.25;5.30;;;19.70;99.90;;;;;;4976281;28;20030;-60
2022/07/14 06:51:34;;;;;;;17.33;5.90;;;19.70;99.90;;;;;;4973692;28;20038;-60
2022/07/14 06:54:00;;;;;;;15.25;5.22;;;19.70;99.90;;;;;;4970165;28;20133;-60
2022/07/14 06:56:26;;;;;;;21.88;5.82;;;19.70;99.90;;;;;;4966196;28;20485;-60
2022/07/14 06:58:52;;;;;;;17.90;6.78;;;19.70;99.90;;;;;;4963599;28;20105;-60
2022/07/14 07:01:18;;;;;;;17.88;5.10;;;19.90;99.90;;;;;;4970178;28;20039;-59
2022/07/14 07:03:43;;;;;;;14.18;5.07;;;20.00;99.90;;;;;;4976158;28;20033;-58
2022/07/14 07:08:53;;;;;;;16.73;6.25;;;20.30;99.90;;;;;;4970921;28;20065;-57
2022/07/14 07:11:19;;;;;;;20.83;6.57;;;20.40;99.90;;;;;;4973830;28;20062;-59
2022/07/14 07:13:45;;;;;;;17.75;6.43;;;20.30;99.90;;;;;;4966091;28;20066;-58
2022/07/14 07:16:10;;;;;;;15.75;6.00;;;20.40;99.90;;;;;;4971524;28;20054;-59
2022/07/14 07:18:36;;;;;;;14.25;6.22;;;20.50;99.90;;;;;;4971588;28;20033;-59
2022/07/14 07:21:03;;;;;;;16.40;5.80;;;20.50;99.90;;;;;;4969390;28;20382;-59
2022/07/14 07:23:32;;;;;;;15.88;5.53;;;20.50;99.90;;;;;;4970337;28;20053;-59
2022/07/14 07:25:58;;;;;;;14.63;5.88;;;20.60;99.90;;;;;;4969037;28;20067;-57
2022/07/14 07:28:23;;;;;;;16.55;6.25;;;20.60;99.90;;;;;;4973175;28;20074;-58
2022/07/14 07:30:49;;;;;;;18.65;5.70;;;20.80;99.90;;;;;;4969407;28;20033;-59
2022/07/14 07:33:14;;;;;;;11.60;5.53;;;20.80;99.90;;;;;;4969132;28;20031;-57
2022/07/14 07:35:43;;;;;;;13.20;5.13;;;20.90;99.90;;;;;;4972740;28;20098;-59
2022/07/14 07:38:08;;;;;;;12.43;5.20;;;21.00;99.90;;;;;;4976132;28;20444;-59
2022/07/14 07:40:34;;;;;;;15.43;5.35;;;21.20;99.90;;;;;;4966618;28;20027;-59
2022/07/14 07:43:00;;;;;;;15.35;6.50;;;21.30;99.90;;;;;;4969599;28;20121;-59
2022/07/14 07:45:25;;;;;;;23.60;5.40;;;21.40;99.90;;;;;;4969398;28;20500;-59
2022/07/14 07:47:51;;;;;;;15.68;4.63;;;21.30;99.90;;;;;;4970857;28;20027;-59
2022/07/14 07:50:17;;;;;;;16.02;4.68;;;21.20;99.90;;;;;;4968738;28;20412;-59
2022/07/14 07:52:43;;;;;;;10.77;5.13;;;21.20;99.90;;;;;;4971572;28;20038;-60
2022/07/14 07:55:10;;;;;;;9.90;4.40;;;21.20;99.90;;;;;;4969825;28;20378;-59
2022/07/14 07:57:37;;;;;;;9.57;4.28;;;21.20;99.90;;;;;;4952316;28;20046;-59
2022/07/14 08:00:05;;;;;;;13.65;4.22;;;21.30;99.90;;;;;;4967425;28;20054;-59
2022/07/14 08:02:31;;;;;;;11.77;4.30;;;21.40;99.90;;;;;;4969583;28;20043;-59
2022/07/14 08:04:57;;;;;;;12.88;4.25;;;21.50;99.90;;;;;;4968018;28;20031;-59
2022/07/14 08:07:22;;;;;;;16.27;4.43;;;21.60;99.90;;;;;;4969215;28;20023;-58
2022/07/14 08:09:48;;;;;;;16.73;4.07;;;21.70;99.90;;;;;;4969808;28;20026;-59
2022/07/14 08:12:14;;;;;;;13.52;3.67;;;21.80;99.90;;;;;;4969614;28;20193;-57
2022/07/14 08:14:51;;;;;;;11.40;4.88;;;22.20;99.90;;;;;;4969035;28;20050;-59
2022/07/14 08:17:20;;;;;;;14.45;3.92;;;22.50;99.90;;;;;;4969252;28;20031;-59
2022/07/14 08:19:46;;;;;;;10.60;3.60;;;22.60;99.90;;;;;;4968924;28;20039;-58
2022/07/14 08:22:12;;;;;;;10.20;3.42;;;23.10;99.90;;;;;;4970331;28;20044;-59
2022/07/14 08:24:37;;;;;;;10.27;3.13;;;23.60;99.90;;;;;;4973422;28;20027;-59
2022/07/14 08:27:03;;;;;;;14.45;4.60;;;23.90;99.50;;;;;;4969080;28;20034;-59
2022/07/14 08:29:29;;;;;;;17.45;3.05;;;23.70;99.00;;;;;;4969882;28;20030;-60
2022/07/14 08:31:54;;;;;;;16.42;4.13;;;23.90;98.80;;;;;;4973728;28;20058;-60
2022/07/14 08:34:20;;;;;;;16.13;4.38;;;23.90;98.30;;;;;;4968026;28;20401;-59
2022/07/14 08:36:48;;;;;;;17.52;5.43;;;23.50;99.00;;;;;;4972361;28;20507;-59
2022/07/14 08:39:15;;;;;;;9.88;3.13;;;23.50;98.80;;;;;;4969030;28;20066;-59
2022/07/14 08:41:41;;;;;;;11.18;2.67;;;23.50;97.10;;;;;;4974446;28;20496;-59
2022/07/14 08:44:08;;;;;;;11.30;2.58;;;24.10;96.40;;;;;;4971422;28;20275;-59
2022/07/14 08:46:38;;;;;;;11.35;2.85;;;24.90;94.60;;;;;;4973726;28;20038;-60
2022/07/14 08:49:08;;;;;;;8.07;2.45;;;25.40;91.80;;;;;;4975786;28;20130;-60
2022/07/14 08:51:37;;;;;;;12.57;2.75;;;25.10;92.40;;;;;;4974184;28;20073;-60
2022/07/14 08:54:03;;;;;;;8.98;2.47;;;24.80;92.00;;;;;;4972514;28;20035;-59
2022/07/14 08:56:32;;;;;;;12.18;2.63;;;24.70;92.30;;;;;;4973251;28;20035;-59
2022/07/14 08:58:58;;;;;;;7.13;2.33;;;24.50;92.10;;;;;;4958460;28;20443;-59
2022/07/14 09:01:26;;;;;;;8.30;2.50;;;23.90;91.40;;;;;;4971643;28;20062;-59
2022/07/14 09:03:54;;;;;;;11.00;2.17;;;23.90;91.20;;;;;;4971439;28;20046;-59
2022/07/14 09:06:42;;;;;;;8.27;3.15;;;24.40;91.30;;;;;;4970242;28;20129;-58
2022/07/14 09:09:08;;;;;;;10.13;3.33;;;24.10;91.50;;;;;;4972464;28;20038;-58
2022/07/14 09:11:34;;;;;;;9.63;2.63;;;24.30;90.50;;;;;;4971863;28;20033;-60
2022/07/14 09:14:10;;;;;;;6.65;2.13;;;24.70;89.80;;;;;;4971513;28;20073;-60
2022/07/14 09:16:36;;;;;;;7.47;2.10;;;24.70;89.50;;;;;;4973399;28;20520;-60
2022/07/14 09:19:05;;;;;;;12.45;2.53;;;25.10;88.00;;;;;;4972174;28;20050;-58
2022/07/14 09:21:31;;;;;;;6.45;2.25;;;25.20;86.70;;;;;;4971750;28;20607;-60
2022/07/14 09:23:58;;;;;;;10.68;2.75;;;25.50;87.60;;;;;;4969012;28;20648;-60
2022/07/14 09:26:24;;;;;;;8.93;2.80;;;26.20;87.40;;;;;;4970343;28;20114;-58
2022/07/14 09:28:51;;;;;;;8.40;2.42;;;26.10;85.50;;;;;;4972448;28;20105;-60
2022/07/14 09:31:28;;;;;;;11.57;2.50;;;26.70;85.80;;;;;;4969007;28;20022;-58
2022/07/14 09:33:58;;;;;;;7.25;2.33;;;26.60;83.00;;;;;;4969386;28;20031;-60
2022/07/14 09:36:29;;;;;;;8.60;2.78;;;26.50;82.50;;;;;;4970927;28;20110;-60
2022/07/14 09:39:07;;;;;;;7.65;2.60;;;26.00;84.40;;;;;;4970262;28;20113;-60
2022/07/14 09:41:52;;;;;;;10.68;2.60;;;26.00;83.20;;;;;;4978361;28;20030;-59
2022/07/14 09:44:19;;;;;;;11.85;2.50;;;26.00;84.40;;;;;;4975715;28;20559;-59
2022/07/14 09:46:57;;;;;;;7.63;2.40;;;25.90;85.30;;;;;;4973362;28;20066;-60
2022/07/14 09:49:28;;;;;;;10.93;2.38;;;25.70;85.60;;;;;;4976317;28;20515;-59
2022/07/14 09:52:01;;;;;;;9.20;3.15;;;25.80;84.80;;;;;;4974468;28;20031;-60
2022/07/14 09:54:47;;;;;;;8.32;2.75;;;26.10;84.70;;;;;;4975956;28;20184;-60
2022/07/14 09:57:12;;;;;;;7.00;2.03;;;27.10;81.70;;;;;;4957921;28;20127;-60
2022/07/14 09:59:52;;;;;;;12.68;2.55;;;27.80;78.90;;;;;;4977234;28;20487;-60
2022/07/14 10:02:26;;;;;;;16.33;3.72;;;28.20;78.00;;;;;;4978605;28;20386;-60
2022/07/14 10:04:54;;;;;;;7.43;1.80;;;28.20;74.50;;;;;;4972016;28;20384;-60
2022/07/14 10:07:22;;;;;;;8.60;1.85;;;28.10;72.00;;;;;;4973759;28;20646;-60
2022/07/14 10:09:52;;;;;;;7.57;1.90;;;28.00;73.70;;;;;;4971221;28;20054;-59
2022/07/14 10:12:18;;;;;;;8.15;2.60;;;28.00;68.40;;;;;;4969310;28;20101;-58
2022/07/14 10:14:44;;;;;;;5.28;1.50;;;27.70;68.20;;;;;;4970496;28;20129;-59
2022/07/14 10:17:10;;;;;;;5.57;1.45;;;27.30;68.50;;;;;;4970312;28;20105;-60
2022/07/14 10:19:37;;;;;;;6.60;1.20;;;27.60;69.70;;;;;;4972935;28;20026;-60
2022/07/14 10:22:04;;;;;;;5.40;1.35;;;27.50;68.90;;;;;;4972778;28;20496;-60
2022/07/14 10:24:30;;;;;;;4.88;1.52;;;27.30;69.70;;;;;;4971370;28;20050;-60
2022/07/14 10:26:57;;;;;;;5.88;1.50;;;27.60;68.30;;;;;;4972334;28;20023;-60
2022/07/14 10:29:23;;;;;;;5.78;1.58;;;27.30;68.40;;;;;;4975057;28;20026;-60
2022/07/14 10:32:11;;;;;;;8.85;1.70;;;27.10;63.50;;;;;;4973160;28;20030;-59
2022/07/14 10:34:52;;;;;;;5.57;1.38;;;26.80;65.60;;;;;;4970973;28;20046;-59
2022/07/14 10:37:41;;;;;;;5.03;1.52;;;26.60;65.90;;;;;;4969533;28;20528;-58
2022/07/14 10:40:16;;;;;;;5.95;1.75;;;26.50;65.40;;;;;;4972958;28;20039;-59
2022/07/14 10:43:03;;;;;;;4.18;1.35;;;26.40;66.40;;;;;;4968759;28;20544;-60
2022/07/14 10:45:29;;;;;;;6.63;1.60;;;26.40;65.40;;;;;;4971070;28;20480;-60
2022/07/14 10:47:54;;;;;;;5.70;2.10;;;26.80;65.50;;;;;;4974840;28;20033;-60
2022/07/14 10:50:24;;;;;;;4.95;1.42;;;26.80;66.80;;;;;;4973844;28;20409;-60
2022/07/14 10:52:52;;;;;;;7.18;2.22;;;26.80;62.40;;;;;;4972260;28;20096;-59
2022/07/14 10:55:24;;;;;;;3.60;1.23;;;27.40;63.80;;;;;;4969974;28;20035;-59
2022/07/14 10:57:59;;;;;;;9.02;2.50;;;27.20;64.90;;;;;;4959785;28;20077;-59
2022/07/14 11:00:47;;;;;;;7.45;1.80;;;27.20;64.50;;;;;;4974022;28;20031;-59
2022/07/14 11:03:19;;;;;;;6.00;1.58;;;27.10;64.20;;;;;;4964015;28;20142;-59
2022/07/14 11:06:12;;;;;;;5.88;1.90;;;27.00;61.50;;;;;;4990782;23;20042;-59
2022/07/14 11:08:38;;;;;;;6.63;1.77;;;26.50;62.90;;;;;;4963005;28;20023;-60
2022/07/14 11:11:08;;;;;;;5.63;1.60;;;26.20;62.70;;;;;;4972193;28;20026;-59
2022/07/14 11:13:55;;;;;;;7.70;1.92;;;26.10;63.10;;;;;;4970990;28;20077;-58
2022/07/14 11:16:55;;;;;;;8.45;2.28;;;26.10;62.90;;;;;;4968205;28;20031;-58
2022/07/14 11:19:24;;;;;;;7.85;1.77;;;26.10;63.40;;;;;;4966915;28;20035;-61
2022/07/14 11:22:09;;;;;;;7.35;1.38;;;26.20;64.50;;;;;;4964977;28;20022;-58
2022/07/14 11:24:35;;;;;;;12.52;1.90;;;26.30;63.20;;;;;;4970029;28;20027;-60
2022/07/14 11:27:35;;;;;;;7.25;1.45;;;26.40;64.40;;;;;;4972427;28;20106;-58
2022/07/14 11:30:19;;;;;;;6.20;1.70;;;26.40;61.90;;;;;;4964895;28;20046;-58
2022/07/14 11:32:45;;;;;;;;;;;26.40;62.30;;;;;;4963947;28;20030;-60
2022/07/14 11:38:20;;;;;;;8.88;2.00;;;25.90;64.00;;;;;;4970563;28;20058;-60
2022/07/14 11:40:53;;;;;;;6.97;1.73;;;26.00;62.10;;;;;;4966894;28;20121;-60
2022/07/14 11:43:31;;;;;;;;;;;25.90;61.20;;;;;;4970338;28;20041;-60
2022/07/14 11:45:58;;;;;;;6.70;1.95;;;25.80;62.90;;;;;;4981265;28;19910;-61
2022/07/14 11:48:29;;;;;;;4.97;1.67;;;25.90;62.70;;;;;;4966783;28;20493;-59
2022/07/14 11:51:21;;;;;;;12.95;3.00;;;25.80;63.40;;;;;;4970739;28;20122;-60
2022/07/14 11:53:53;;;;;;;22.23;2.72;;;25.50;64.10;;;;;;4967813;28;20043;-57
2022/07/14 11:56:24;;;;;;;10.43;1.88;;;25.50;62.50;;;;;;4971130;28;20030;-59
2022/07/14 11:58:51;;;;;;;7.28;2.28;;;25.70;63.20;;;;;;4958804;28;20461;-60
2022/07/14 12:01:18;;;;;;;6.75;1.70;;;25.70;62.50;;;;;;4972058;28;20637;-59
2022/07/14 12:03:44;;;;;;;14.52;2.22;;;25.70;62.80;;;;;;4968071;28;20039;-56
2022/07/14 12:06:10;;;;;;;11.63;1.90;;;25.50;63.10;;;;;;4967707;28;20039;-57
2022/07/14 12:08:37;;;;;;;10.00;2.00;;;25.50;64.50;;;;;;4973022;28;20117;-59
2022/07/14 12:11:09;;;;;;;11.68;1.85;;;25.40;62.30;;;;;;4969610;28;20074;-59
2022/07/14 12:13:53;;;;;;;4.40;1.65;;;25.30;64.20;;;;;;4970955;28;20034;-60
2022/07/14 12:16:21;;;;;;;11.13;2.30;;;25.40;65.30;;;;;;4980990;28;20050;-58
2022/07/14 12:18:47;;;;;;;8.88;2.13;;;25.30;63.10;;;;;;4970382;28;20035;-59
2022/07/14 12:21:14;;;;;;;4.45;2.00;;;25.20;63.80;;;;;;4966540;28;20028;-61
2022/07/14 12:23:54;;;;;;;7.05;1.58;;;25.00;63.90;;;;;;4969659;28;20038;-61
2022/07/14 12:26:22;;;;;;;6.80;1.77;;;25.00;62.50;;;;;;4966211;28;20046;-61
2022/07/14 12:28:52;;;;;;;9.23;2.22;;;24.80;62.70;;;;;;4963754;28;20034;-61
2022/07/14 12:31:19;;;;;;;7.18;1.83;;;24.90;63.60;;;;;;4964609;28;20038;-62
2022/07/14 12:33:46;;;;;;;6.95;1.63;;;24.90;63.20;;;;;;4963378;28;20031;-61
2022/07/14 12:36:19;;;;;;;5.50;2.00;;;24.90;63.40;;;;;;4969094;28;20027;-60
2022/07/14 12:38:46;;;;;;;3.42;1.77;;;24.90;63.70;;;;;;4964088;28;20422;-60
2022/07/14 12:41:14;;;;;;;7.90;1.70;;;24.90;63.20;;;;;;4969375;28;20057;-61
2022/07/14 12:43:41;;;;;;;5.72;1.20;;;25.00;63.40;;;;;;4970753;28;20205;-59
2022/07/14 12:46:16;;;;;;;6.38;1.63;;;25.10;64.30;;;;;;4964759;28;20027;-60
2022/07/14 12:48:52;;;;;;;5.60;1.65;;;25.10;63.60;;;;;;4967361;28;20059;-59
2022/07/14 12:51:20;;;;;;;8.43;1.92;;;25.00;63.10;;;;;;4964345;28;20137;-60
2022/07/14 12:53:57;;;;;;;8.25;1.80;;;25.10;63.70;;;;;;4969703;28;20034;-60
2022/07/14 12:56:24;;;;;;;4.22;1.52;;;25.20;64.70;;;;;;4967024;28;20023;-59
2022/07/14 12:58:50;;;;;;;4.70;1.88;;;25.20;63.60;;;;;;4950333;28;20540;-60
2022/07/14 13:01:15;;;;;;;5.43;1.75;;;25.00;64.40;;;;;;4970791;28;20031;-60